CheckWX is a tool to help pilots better visualize weather data.  It is not intended as a substitute for an official pre-flight weather briefing.

14:17:02 UTC

KCRE METAR
Grand Strand Airport
North Myrtle Beach, South Carolina, USA
Current

24 mins ago

KCRE 221353Z VRB05KT 10SM CLR 17/08 A3019 RMK AO1 SLP223 T01720083
Observed
Apr-22 @ 13:53 UTC
Wind
  • Variable at 5 KTS
Visibility
10 SM
Flight Rules
VFR
Cloud Levels
  • Clear skies
Temperature
17°C / 63°F
Dewpoint
C / 46°F
Humidity
56%
Altimeter
30.19" Hg
Pressure
1022.32 hPa
Previous

1 hour ago

KCRE 221253Z 31005KT 10SM CLR 14/09 A3019 RMK AO1 SLP224 T01440094
Observed
Apr-22 @ 12:53 UTC
Wind
  • 310° at 5 KTS
Visibility
10 SM
Flight Rules
VFR
Cloud Levels
  • Clear skies
Temperature
14°C / 57°F
Dewpoint
C / 48°F
Humidity
72%
Altimeter
30.19" Hg
Pressure
1022.32 hPa
Previous

2 hours ago

KCRE 221153Z VRB05KT 10SM CLR 11/08 A3019 RMK AO1 SLP224 T01110083 10111 20094 53023
Observed
Apr-22 @ 11:53 UTC
Wind
  • Variable at 5 KTS
Visibility
10 SM
Flight Rules
VFR
Cloud Levels
  • Clear skies
Temperature
11°C / 52°F
Dewpoint
C / 46°F
Humidity
82%
Altimeter
30.19" Hg
Pressure
1022.32 hPa